Patriot, Indiana
Current Conditions -  °F | °C
As of 3:52 PM on Friday 24 Oct 2014 (Local Time) from KCVG Reporting Station
Few Clouds Few Clouds  
Wind Chill: 19°   Ceiling: Unl
Heat Index: 19°   Visibility: 10mi
Dew Point:   Wind: 5mph
Humidity: 36%   Direction: 250°WSW
Pressure: 30.04"   Gusts: NA
Location:  38.84°N, 84.83°W
Report Text: KCVG 241952Z 25004KT 10SM FEW250 19/03 A3004 RMK AO2 SLP169 T01890033
Loading
Personal Weather Stations






























Interactive Weather Map
Tropical Storm Tracking
New forecast layout! Learn more

10-Day Weather Forecast

Advertisements
Track Severe Weather on mobile